Warrensburg, New York
Current Conditions -  °F | °C
As of 1:37 PM on Wednesday 26 Nov 2014 (Local Time) from KGFL Reporting Station
Moderate Snow Moderate Snow  
Wind Chill: 24°   Ceiling: 800
Heat Index: 32°   Visibility: 0.5mi
Dew Point: 30°   Wind: 9mph
Humidity: 92%   Direction: 10°N
Pressure: 30.12"   Gusts: NA
Location:  43.5°N, 73.78°W
Report Text: KGFL 261837Z AUTO 01008KT 1/2SM SN FG VV008 00/M01 A3012 RMK AO2 P0004 T00001011
Loading
Personal Weather Stations






























Interactive Weather Map New forecast layout! Learn more

10-Day Weather Forecast

Advertisements
Track Severe Weather on mobile